Time;durP1;ratioP1;P1;durP2;ratioP2;P2;SDS_P1;SDS_P2;PMS_P1;PMS_P2;Temp;Humidity;BMP_temperature;BMP_pressure;BME280_temperature;BME280_humidity;BME280_pressure;Samples;Min_cycle;Max_cycle;Signal;HPM_P1;HPM_P2
2023/02/15 00:11:49;;;;;;;101.70;46.80;;;;;;;-1.77;100.00;102328.31;213361;1293;139364;-89
2023/02/15 00:17:22;;;;;;;104.80;45.80;;;;;;;-1.81;100.00;102327.45;213143;1294;138804;-89
2023/02/15 00:23:24;;;;;;;100.10;41.60;;;;;;;-1.83;100.00;102323.11;213863;1293;139508;-89
2023/02/15 00:29:25;;;;;;;101.10;46.00;;;;;;;-1.89;100.00;102311.27;213459;1288;139335;-89
2023/02/15 00:41:26;;;;;;;84.10;38.50;;;;;;;-1.91;100.00;102306.27;213691;1293;139040;-88
2023/02/15 00:47:27;;;;;;;83.60;40.40;;;;;;;-1.95;100.00;102299.61;213620;1289;139316;-88
2023/02/15 00:59:30;;;;;;;82.00;37.50;;;;;;;-2.03;100.00;102295.63;213370;1291;139181;-87
2023/02/15 01:05:32;;;;;;;90.70;39.40;;;;;;;-2.06;100.00;102289.95;214138;1289;97409;-87
2023/02/15 01:11:32;;;;;;;82.30;36.60;;;;;;;-2.11;100.00;102283.86;213698;1289;139213;-88
2023/02/15 01:17:33;;;;;;;84.30;38.60;;;;;;;-2.14;100.00;102282.79;213471;1289;140347;-88
2023/02/15 01:29:35;;;;;;;87.40;41.40;;;;;;;-2.21;100.00;102279.56;213441;1289;138993;-87
2023/02/15 01:35:36;;;;;;;92.80;43.40;;;;;;;-2.24;100.00;102276.02;214128;1292;97803;-88
2023/02/15 01:41:50;;;;;;;98.70;45.50;;;;;;;-2.28;100.00;102269.60;213694;1289;140473;-87
2023/02/15 01:47:44;;;;;;;71.90;33.70;;;;;;;-2.30;100.00;102258.86;213525;1289;139004;-88
2023/02/15 01:59:55;;;;;;;97.10;42.90;;;;;;;-2.37;100.00;102251.66;213746;1293;138949;-87
2023/02/15 02:05:56;;;;;;;102.70;45.00;;;;;;;-2.40;100.00;102250.74;213725;1290;96696;-87
2023/02/15 02:24:11;;;;;;;96.40;46.80;;;;;;;-2.54;100.00;102234.52;213895;1292;97936;-87
2023/02/15 02:36:26;;;;;;;118.40;56.80;;;;;;;-2.60;100.00;102219.34;213912;1292;97556;-87
2023/02/15 02:42:33;;;;;;;126.60;55.80;;;;;;;-2.63;100.00;102212.61;214568;1289;96687;-87
2023/02/15 02:48:34;;;;;;;114.60;52.00;;;;;;;-2.66;100.00;102203.08;213566;1294;139587;-87
2023/02/15 03:12:42;;;;;;;107.50;47.40;;;;;;;-2.73;100.00;102185.88;213665;1291;140515;-88
2023/02/15 03:18:43;;;;;;;107.00;50.10;;;;;;;-2.75;100.00;102181.64;213449;1289;140015;-85
2023/02/15 03:24:53;;;;;;;100.10;49.20;;;;;;;-2.77;100.00;102183.88;213823;1291;139463;-86
2023/02/15 03:30:54;;;;;;;107.20;51.00;;;;;;;-2.78;100.00;102187.27;213477;1288;139197;-86
2023/02/15 03:37:04;;;;;;;123.50;58.10;;;;;;;-2.80;100.00;102173.59;213531;1291;139311;-87
2023/02/15 03:43:11;;;;;;;124.80;59.00;;;;;;;-2.80;100.00;102172.85;214057;1289;97942;-86
2023/02/15 03:49:18;;;;;;;127.50;57.50;;;;;;;-2.78;100.00;102173.73;213278;1291;139218;-86
2023/02/15 03:55:19;;;;;;;116.60;51.50;;;;;;;-2.76;100.00;102165.41;213974;1292;97525;-86
2023/02/15 04:07:20;;;;;;;113.80;50.20;;;;;;;-2.70;100.00;102152.25;213577;1291;139361;-87
2023/02/15 04:31:33;;;;;;;103.30;47.30;;;;;;;-2.57;100.00;102140.48;213521;1291;138589;-87
2023/02/15 04:37:34;;;;;;;107.30;47.70;;;;;;;-2.55;100.00;102131.76;213536;1291;138925;-87
2023/02/15 04:49:36;;;;;;;142.50;70.50;;;;;;;-2.52;100.00;102124.13;213585;1289;140335;-87
2023/02/15 04:55:38;;;;;;;133.80;65.30;;;;;;;-2.51;100.00;102120.91;213944;1289;97610;-86
2023/02/15 05:07:40;;;;;;;147.60;71.20;;;;;;;-2.49;100.00;102120.78;213418;1288;139591;-87
2023/02/15 05:13:41;;;;;;;121.10;58.00;;;;;;;-2.49;100.00;102117.45;214011;1291;96614;-86
2023/02/15 05:19:43;;;;;;;108.20;50.40;;;;;;;-2.51;100.00;102120.44;213446;1289;138848;-85
2023/02/15 05:31:47;;;;;;;94.90;44.90;;;;;;;-2.51;100.00;102124.42;213782;1288;140160;-86
2023/02/15 05:37:48;;;;;;;110.10;48.10;;;;;;;-2.50;100.00;102119.77;213563;1289;139186;-85
2023/02/15 05:43:49;;;;;;;100.10;45.00;;;;;;;-2.48;100.00;102117.52;214165;1288;97899;-87
2023/02/15 05:55:52;;;;;;;97.50;43.90;;;;;;;-2.48;100.00;102114.77;214065;1289;138878;-86
2023/02/15 06:01:53;;;;;;;101.30;42.60;;;;;;;-2.48;100.00;102111.70;213943;1289;138460;-87
2023/02/15 06:07:54;;;;;;;118.50;49.70;;;;;;;-2.47;100.00;102111.77;213757;1294;138901;-86
2023/02/15 06:13:55;;;;;;;131.90;56.70;;;;;;;-2.46;100.00;102108.20;214084;1289;139638;-87
2023/02/15 06:19:56;;;;;;;120.70;48.20;;;;;;;-2.45;100.00;102107.42;213427;1292;139755;-86
2023/02/15 06:25:58;;;;;;;92.80;44.00;;;;;;;-2.44;100.00;102107.33;213973;1287;139058;-87
2023/02/15 06:31:59;;;;;;;108.20;46.60;;;;;;;-2.44;100.00;102102.30;213985;1288;139344;-87
2023/02/15 06:38:01;;;;;;;99.50;45.00;;;;;;;-2.42;100.00;102098.48;213391;1289;139578;-87
2023/02/15 06:50:03;;;;;;;101.20;46.00;;;;;;;-2.38;100.00;102092.30;213692;1291;139272;-87
2023/02/15 06:55:49;;;;;;;;;;;;;;;;;;;;;
2023/02/15 07:01:51;;;;;;;103.40;43.40;;;;;;;-2.22;100.00;102090.33;213957;1289;138862;-87
2023/02/15 07:07:52;;;;;;;94.90;43.70;;;;;;;-2.12;100.00;102094.44;213394;1288;139597;-86
2023/02/15 07:13:53;;;;;;;89.10;38.10;;;;;;;-2.02;100.00;102089.15;214031;1294;138836;-87
2023/02/15 07:19:54;;;;;;;99.50;41.10;;;;;;;-1.88;100.00;102086.09;213618;1289;138921;-87
2023/02/15 07:25:56;;;;;;;103.50;43.30;;;;;;;-1.74;100.00;102080.05;213983;1289;138717;-87
2023/02/15 07:31:48;;;;;;;102.10;43.90;;;;;;;-1.59;100.00;102067.92;213992;1292;248260;-86
2023/02/15 07:37:49;;;;;;;100.60;45.60;;;;;;;-1.42;100.00;102060.80;213571;1292;139163;-87
2023/02/15 07:43:50;;;;;;;97.00;44.20;;;;;;;-1.17;100.00;102061.26;213802;1292;139258;-88
2023/02/15 07:49:52;;;;;;;98.70;44.70;;;;;;;-1.05;100.00;102065.23;214013;1289;138933;-87
2023/02/15 07:55:52;;;;;;;;;;;;;;;;;;;;;
2023/02/15 08:01:56;;;;;;;100.70;45.40;;;;;;;-0.66;100.00;102057.55;213689;1289;139537;-88
2023/02/15 08:07:55;;;;;;;98.50;46.90;;;;;;;-0.45;100.00;102050.67;213269;1291;139517;-88
2023/02/15 08:13:59;;;;;;;101.80;47.60;;;;;;;-0.22;100.00;102033.43;213968;1292;138624;-86
2023/02/15 08:19:57;;;;;;;89.20;42.60;;;;;;;0.01;100.00;102025.10;213354;1292;140019;-88
2023/02/15 08:25:59;;;;;;;82.10;38.70;;;;;;;0.28;100.00;102015.27;213762;1292;138412;-87
2023/02/15 08:37:57;;;;;;;;;;;;;;;;;;;;;
2023/02/15 08:43:59;;;;;;;86.50;43.40;;;;;;;1.22;100.00;101998.48;214187;1291;138528;-85
2023/02/15 08:49:59;;;;;;;83.30;39.90;;;;;;;1.57;100.00;101997.77;213644;1289;139098;-88
2023/02/15 08:56:01;;;;;;;84.20;40.20;;;;;;;2.00;100.00;101993.73;214183;1289;138349;-85
2023/02/15 09:02:02;;;;;;;87.50;43.00;;;;;;;2.50;100.00;101987.73;213893;1292;138960;-84
2023/02/15 09:08:03;;;;;;;81.90;38.80;;;;;;;3.06;100.00;101980.14;213548;1292;139269;-85
2023/02/15 09:20:08;;;;;;;78.30;39.10;;;;;;;4.29;100.00;101966.95;209754;1288;5361047;-85
2023/02/15 09:26:09;;;;;;;78.40;38.80;;;;;;;4.91;100.00;101961.25;214364;1292;112249;-88
2023/02/15 09:38:16;;;;;;;66.50;34.60;;;;;;;5.56;100.00;101959.35;213823;1292;138840;-88
2023/02/15 09:44:19;;;;;;;59.70;33.40;;;;;;;5.84;100.00;101954.27;213993;1294;140664;-87
2023/02/15 09:56:29;;;;;;;98.80;49.90;;;;;;;6.26;100.00;101934.73;213847;1289;139238;-87
2023/02/15 10:08:41;;;;;;;58.20;31.10;;;;;;;6.33;98.58;101924.20;213955;1289;138911;-89
2023/02/15 10:14:52;;;;;;;64.60;33.30;;;;;;;6.65;99.69;101916.52;214611;1290;109981;-87
2023/02/15 10:27:04;;;;;;;108.00;45.60;;;;;;;7.01;96.44;101904.34;213999;1292;138431;-87
2023/02/15 10:33:11;;;;;;;67.50;34.50;;;;;;;7.06;94.83;101897.52;214327;1292;108783;-86
2023/02/15 10:39:22;;;;;;;62.20;33.30;;;;;;;7.19;94.93;101897.73;213887;1294;138860;-87
2023/02/15 10:51:25;;;;;;;58.10;30.10;;;;;;;7.44;93.50;101880.91;213972;1289;139314;-90
2023/02/15 11:03:37;;;;;;;142.00;65.80;;;;;;;7.70;92.12;101865.80;214350;1295;110580;-86
2023/02/15 11:09:40;;;;;;;61.40;33.10;;;;;;;7.69;91.44;101854.48;213714;1290;139796;-87
2023/02/15 11:15:46;;;;;;;59.50;30.70;;;;;;;7.67;90.43;101850.21;214139;1292;110636;-86
2023/02/15 11:22:17;;;;;;;55.40;29.60;;;;;;;7.59;90.13;101848.02;214994;1288;138154;-86
2023/02/15 11:28:18;;;;;;;60.90;31.60;;;;;;;7.50;89.30;101845.02;213668;1292;138675;-88
2023/02/15 11:34:18;;;;;;;;;;;;;;;;;;;;;
2023/02/15 11:40:13;;;;;;;;;;;;;;;;;;;;;
2023/02/15 11:46:21;;;;;;;;;;;;;;;;;;;;;
2023/02/15 11:52:03;;;;;;;;;;;;;;;7.30;88.08;101824.52;214498;1292;111253;-84
2023/02/15 11:58:19;;;;;;;66.50;32.60;;;;;;;7.32;88.54;101813.33;214091;1292;125542;-85
2023/02/15 12:04:18;;;;;;;;;;;;;;;;;;;;;
2023/02/15 12:16:46;;;;;;;61.40;33.10;;;;;;;7.42;87.58;101796.67;214776;1289;138649;-85
2023/02/15 12:22:47;;;;;;;65.00;33.30;;;;;;;7.44;87.79;101792.46;215030;1289;109548;-86
2023/02/15 12:28:48;;;;;;;67.90;32.90;;;;;;;7.47;86.75;101789.23;214077;1292;138586;-86
2023/02/15 12:34:55;;;;;;;62.90;32.80;;;;;;;7.47;86.71;101782.42;214218;1292;109765;-89
2023/02/15 12:40:59;;;;;;;64.10;33.30;;;;;;;7.47;86.95;101771.56;213852;1289;138538;-87
2023/02/15 12:53:06;;;;;;;66.90;32.60;;;;;;;7.50;86.32;101765.52;214082;1291;111398;-88
2023/02/15 12:59:10;;;;;;;66.30;33.20;;;;;;;7.48;86.66;101760.65;213818;1288;138366;-84
2023/02/15 13:05:18;;;;;;;96.20;48.10;;;;;;;7.50;86.74;101751.49;214394;1288;109978;-84
2023/02/15 13:11:24;;;;;;;63.30;33.60;;;;;;;7.48;86.37;101751.27;214217;1288;138234;-87
2023/02/15 13:17:31;;;;;;;66.40;35.10;;;;;;;7.48;86.31;101744.27;213981;1288;139863;-86
2023/02/15 13:23:32;;;;;;;60.10;31.60;;;;;;;7.47;85.89;101736.48;214633;1291;111036;-85
2023/02/15 13:29:33;;;;;;;67.80;35.00;;;;;;;7.45;86.41;101729.82;213758;1288;139289;-89
2023/02/15 13:35:37;;;;;;;67.10;34.70;;;;;;;7.46;85.39;101726.59;214325;1289;111432;-85
2023/02/15 13:41:45;;;;;;;65.10;33.80;;;;;;;7.50;86.17;101725.98;214308;1288;139282;-86
2023/02/15 13:47:37;;;;;;;;;;;;;;;;;;;;;
2023/02/15 14:00:05;;;;;;;70.70;35.30;;;;;;;7.46;86.47;101713.19;214363;1288;138469;-85
2023/02/15 14:24:56;;;;;;;;;;;;;;;7.40;85.82;101684.13;214330;1291;138791;-87
2023/02/15 14:31:01;;;;;;;70.00;36.00;;;;;;;7.38;86.33;101684.52;214162;1288;125278;-88
2023/02/15 14:36:45;;;;;;;;;;;;;;;;;;;;;
2023/02/15 14:42:53;;;;;;;68.40;36.30;;;;;;;7.29;86.40;101681.22;214599;1288;138608;-89
2023/02/15 14:54:59;;;;;;;72.30;36.10;;;;;;;7.20;87.17;101679.39;214231;1292;138764;-91
2023/02/15 15:01:03;;;;;;;;;;;;;;;;;;;;;
2023/02/15 15:07:09;;;;;;;72.60;35.50;;;;;;;7.12;86.99;101671.31;214213;1291;139055;-88
2023/02/15 15:13:20;;;;;;;;;;;;;;;;;;;;;
2023/02/15 15:19:22;;;;;;;;;;;;;;;;;;;;;
2023/02/15 15:25:52;;;;;;;;;;;;;;;;;;;;;
2023/02/15 15:31:38;;;;;;;;;;;;;;;;;;;;;
2023/02/15 15:37:36;;;;;;;;;;;;;;;;;;;;;
2023/02/15 15:43:57;;;;;;;72.20;33.10;;;;;;;6.75;88.13;101635.63;214350;1289;139393;-86
2023/02/15 15:50:01;;;;;;;73.50;34.60;;;;;;;6.66;88.41;101628.72;213967;1292;139069;-87
2023/02/15 15:56:05;;;;;;;62.40;32.30;;;;;;;6.58;88.66;101625.77;214238;1294;138538;-87
2023/02/15 16:02:09;;;;;;;71.30;34.20;;;;;;;6.44;88.85;101626.27;214216;1292;139166;-87
2023/02/15 16:08:12;;;;;;;69.60;34.30;;;;;;;6.30;88.95;101613.68;213496;1288;138991;-87
2023/02/15 16:14:13;;;;;;;72.30;34.60;;;;;;;6.16;89.47;101610.27;214281;1288;138975;-88
2023/02/15 16:20:18;;;;;;;74.50;36.20;;;;;;;6.01;89.71;101610.02;213755;1292;138988;-86
2023/02/15 16:26:24;;;;;;;67.40;33.50;;;;;;;5.89;90.21;101609.41;214202;1291;138509;-88
2023/02/15 16:38:45;;;;;;;72.00;36.50;;;;;;;5.59;90.66;101601.44;212653;1296;138760;-86
2023/02/15 16:44:46;;;;;;;88.00;41.00;;;;;;;5.44;90.86;101591.03;212945;1296;138594;-86
2023/02/15 16:50:47;;;;;;;108.60;46.80;;;;;;;5.31;91.02;101579.88;213863;1288;138861;-86
2023/02/15 16:56:47;;;;;;;;;;;;;;;;;;;;;
2023/02/15 17:09:14;;;;;;;79.50;38.00;;;;;;;4.87;92.30;101562.72;213884;1291;138785;-86
2023/02/15 17:21:16;;;;;;;80.10;36.70;;;;;;;4.63;92.91;101569.80;213802;1294;138560;-86
2023/02/15 17:27:39;;;;;;;66.90;32.40;;;;;;;4.52;93.43;101568.52;213480;1290;138500;-86
2023/02/15 17:33:21;;;;;;;78.40;34.70;;;;;;;4.43;93.79;101562.11;214046;1293;138556;-86
2023/02/15 17:39:22;;;;;;;74.30;36.00;;;;;;;4.36;94.02;101560.20;213642;1292;138577;-85
2023/02/15 17:57:19;;;;;;;91.90;47.60;;;;;;;3.97;94.75;101567.30;213664;1289;138571;-86
2023/02/15 18:15:20;;;;;;;115.50;51.70;;;;;;;3.45;95.70;101561.52;214272;1291;138804;-87
2023/02/15 18:21:19;;;;;;;;;;;;;;;;;;;;;
2023/02/15 18:27:21;;;;;;;139.80;61.80;;;;;;;3.21;96.61;101557.80;213627;1288;138882;-86
2023/02/15 18:33:22;;;;;;;138.20;62.30;;;;;;;3.08;96.75;101560.70;214823;1288;138940;-86
2023/02/15 18:39:24;;;;;;;121.10;59.20;;;;;;;2.99;97.29;101548.04;214058;1292;139226;-86
2023/02/15 18:45:27;;;;;;;114.70;51.90;;;;;;;2.87;97.71;101545.68;214685;1289;138667;-87
2023/02/15 18:51:26;;;;;;;116.10;55.80;;;;;;;2.75;97.90;101538.73;214350;1291;138958;-86
2023/02/15 18:57:33;;;;;;;102.30;47.00;;;;;;;2.65;98.10;101535.20;213955;1288;138796;-87
2023/02/15 19:03:34;;;;;;;103.60;49.50;;;;;;;2.54;98.14;101524.36;214237;1288;138777;-85
2023/02/15 19:09:33;;;;;;;;;;;;;;;;;;;;;
2023/02/15 19:15:36;;;;;;;113.60;53.30;;;;;;;2.27;98.61;101518.60;215246;1288;139522;-88
2023/02/15 19:21:59;;;;;;;118.80;51.70;;;;;;;2.20;99.24;101506.88;214669;1293;139708;-87
2023/02/15 19:27:41;;;;;;;112.00;52.70;;;;;;;2.14;99.82;101498.39;214191;1292;138721;-86
2023/02/15 19:33:42;;;;;;;111.50;51.70;;;;;;;2.07;99.89;101506.92;214570;1293;138826;-88
2023/02/15 19:39:43;;;;;;;112.60;53.70;;;;;;;1.98;99.85;101501.50;214290;1289;139239;-88
2023/02/15 19:45:44;;;;;;;129.00;57.80;;;;;;;1.91;100.00;101502.05;214755;1288;138765;-87
2023/02/15 19:51:46;;;;;;;141.50;64.50;;;;;;;1.83;100.00;101496.36;214797;1288;139920;-87
2023/02/15 19:57:47;;;;;;;149.10;72.50;;;;;;;1.75;100.00;101491.31;214410;1288;138994;-87
2023/02/15 20:16:04;;;;;;;163.60;83.30;;;;;;;1.48;100.00;101468.84;214617;1291;139940;-87
2023/02/15 20:22:03;;;;;;;167.80;85.40;;;;;;;1.37;100.00;101453.45;214252;1289;138916;-86
2023/02/15 20:28:04;;;;;;;199.50;94.90;;;;;;;1.29;100.00;101449.06;213724;1293;139149;-86
2023/02/15 20:34:05;;;;;;;164.70;81.20;;;;;;;1.21;100.00;101440.83;214219;1288;139014;-87
2023/02/15 20:40:15;;;;;;;129.40;61.00;;;;;;;1.10;100.00;101436.07;213873;1289;138995;-88
2023/02/15 20:52:19;;;;;;;196.90;90.60;;;;;;;0.89;100.00;101427.05;214485;1289;138886;-86
2023/02/15 20:58:21;;;;;;;152.50;69.30;;;;;;;0.85;100.00;101423.64;213967;1288;139756;-87
2023/02/15 21:04:22;;;;;;;131.90;64.30;;;;;;;0.77;100.00;101421.39;214347;1293;138839;-85
2023/02/15 21:10:48;;;;;;;151.30;69.80;;;;;;;0.70;100.00;101415.73;213979;1289;139347;-86
2023/02/15 21:16:36;;;;;;;139.60;69.80;;;;;;;0.64;100.00;101405.78;213673;1289;139175;-89
2023/02/15 21:22:39;;;;;;;130.20;59.60;;;;;;;0.58;100.00;101396.03;210547;1288;5357027;-88
2023/02/15 21:28:40;;;;;;;128.80;58.20;;;;;;;0.53;100.00;101391.20;213627;1289;139739;-87
2023/02/15 21:34:39;;;;;;;121.30;54.70;;;;;;;0.47;100.00;101382.98;214083;1288;138749;-87
2023/02/15 21:40:40;;;;;;;128.50;55.30;;;;;;;0.41;100.00;101376.29;214300;1288;139167;-88
2023/02/15 21:52:42;;;;;;;132.20;57.50;;;;;;;0.28;100.00;101380.09;214113;1291;138687;-88
2023/02/15 21:58:43;;;;;;;118.40;53.30;;;;;;;0.18;100.00;101387.89;213748;1288;138964;-87
2023/02/15 22:04:44;;;;;;;128.30;59.40;;;;;;;0.10;100.00;101391.58;214303;1288;138760;-87
2023/02/15 22:10:46;;;;;;;122.10;56.10;;;;;;;0.02;100.00;101384.47;213860;1292;138561;-87
2023/02/15 22:16:47;;;;;;;119.40;57.50;;;;;;;-0.07;100.00;101375.17;213734;1288;138976;-87
2023/02/15 22:22:48;;;;;;;137.50;62.20;;;;;;;-0.15;100.00;101372.96;214649;1292;139053;-87
2023/02/15 22:28:49;;;;;;;131.40;60.00;;;;;;;-0.18;100.00;101374.57;213582;1292;139440;-87
2023/02/15 22:35:06;;;;;;;123.70;59.10;;;;;;;-0.27;100.00;101372.91;213973;1294;139080;-87
2023/02/15 22:41:07;;;;;;;118.90;53.20;;;;;;;-0.33;100.00;101371.55;213529;1289;139521;-88
2023/02/15 22:47:08;;;;;;;119.40;52.80;;;;;;;-0.38;100.00;101368.29;214078;1289;139400;-85
2023/02/15 22:53:09;;;;;;;132.70;59.30;;;;;;;-0.46;100.00;101368.48;218203;1288;140588;-86
2023/02/15 22:59:10;;;;;;;133.20;58.40;;;;;;;-0.50;100.00;101371.84;214254;1288;139518;-86
2023/02/15 23:05:04;;;;;;;134.10;59.80;;;;;;;-0.54;100.00;101372.50;214285;1291;139141;-86
2023/02/15 23:11:06;;;;;;;133.00;59.10;;;;;;;-0.60;100.00;101366.61;213756;1288;139758;-86
2023/02/15 23:17:07;;;;;;;134.00;57.50;;;;;;;-0.65;100.00;101365.72;213623;1289;139433;-87
2023/02/15 23:23:17;;;;;;;118.60;53.10;;;;;;;-0.70;100.00;101369.68;214058;1294;140049;-86
2023/02/15 23:29:18;;;;;;;128.90;54.20;;;;;;;-0.75;100.00;101364.59;213727;1288;139472;-90
2023/02/15 23:35:22;;;;;;;127.50;57.30;;;;;;;-0.82;100.00;101365.00;214243;1291;139201;-90
2023/02/15 23:53:33;;;;;;;126.00;56.40;;;;;;;-0.95;100.00;101370.69;213837;1289;140197;-89
2023/02/15 23:59:33;;;;;;;132.30;59.80;;;;;;;-1.00;100.00;101360.13;213697;1292;140206;-89
